sensor_id;sensor_type;location;lat;lon;timestamp;P1;durP1;ratioP1;P2;durP2;ratioP2
41943;SDS011;27636;52.610;13.244;2023-01-24T00:00:37;15.05;;;7.43;;
41943;SDS011;27636;52.610;13.244;2023-01-24T00:05:43;19.80;;;9.80;;
41943;SDS011;27636;52.610;13.244;2023-01-24T00:10:48;20.73;;;8.32;;
41943;SDS011;27636;52.610;13.244;2023-01-24T00:15:51;16.25;;;7.03;;
41943;SDS011;27636;52.610;13.244;2023-01-24T00:21:06;21.55;;;8.63;;
41943;SDS011;27636;52.610;13.244;2023-01-24T00:26:17;19.55;;;7.28;;
41943;SDS011;27636;52.610;13.244;2023-01-24T00:31:22;20.23;;;8.68;;
41943;SDS011;27636;52.610;13.244;2023-01-24T00:36:27;24.95;;;9.93;;
41943;SDS011;27636;52.610;13.244;2023-01-24T00:41:30;29.45;;;9.57;;
41943;SDS011;27636;52.610;13.244;2023-01-24T00:46:34;18.25;;;7.43;;
41943;SDS011;27636;52.610;13.244;2023-01-24T00:51:38;26.70;;;8.27;;
41943;SDS011;27636;52.610;13.244;2023-01-24T00:56:42;16.60;;;8.48;;
41943;SDS011;27636;52.610;13.244;2023-01-24T01:01:45;18.25;;;7.85;;
41943;SDS011;27636;52.610;13.244;2023-01-24T01:06:49;18.83;;;7.82;;
41943;SDS011;27636;52.610;13.244;2023-01-24T01:11:53;34.05;;;7.85;;
41943;SDS011;27636;52.610;13.244;2023-01-24T01:16:56;25.08;;;8.15;;
41943;SDS011;27636;52.610;13.244;2023-01-24T01:22:01;18.15;;;7.57;;
41943;SDS011;27636;52.610;13.244;2023-01-24T01:27:04;18.63;;;6.05;;
41943;SDS011;27636;52.610;13.244;2023-01-24T01:32:07;15.30;;;6.72;;
41943;SDS011;27636;52.610;13.244;2023-01-24T01:37:12;17.92;;;7.45;;
41943;SDS011;27636;52.610;13.244;2023-01-24T01:42:16;14.88;;;6.47;;
41943;SDS011;27636;52.610;13.244;2023-01-24T01:47:21;17.00;;;5.78;;
41943;SDS011;27636;52.610;13.244;2023-01-24T01:52:31;14.68;;;5.97;;
41943;SDS011;27636;52.610;13.244;2023-01-24T01:57:37;12.02;;;6.40;;
41943;SDS011;27636;52.610;13.244;2023-01-24T02:02:45;12.30;;;5.55;;
41943;SDS011;27636;52.610;13.244;2023-01-24T02:07:53;15.68;;;6.72;;
41943;SDS011;27636;52.610;13.244;2023-01-24T02:13:00;12.43;;;6.07;;
41943;SDS011;27636;52.610;13.244;2023-01-24T02:18:05;17.23;;;6.82;;
41943;SDS011;27636;52.610;13.244;2023-01-24T02:23:14;17.98;;;5.13;;
41943;SDS011;27636;52.610;13.244;2023-01-24T02:28:28;14.95;;;5.88;;
41943;SDS011;27636;52.610;13.244;2023-01-24T02:33:32;18.50;;;5.70;;
41943;SDS011;27636;52.610;13.244;2023-01-24T02:38:37;13.33;;;5.20;;
41943;SDS011;27636;52.610;13.244;2023-01-24T02:43:44;15.95;;;5.55;;
41943;SDS011;27636;52.610;13.244;2023-01-24T02:48:50;14.93;;;6.07;;
41943;SDS011;27636;52.610;13.244;2023-01-24T02:53:53;13.95;;;4.95;;
41943;SDS011;27636;52.610;13.244;2023-01-24T02:58:58;12.65;;;5.40;;
41943;SDS011;27636;52.610;13.244;2023-01-24T03:04:04;11.38;;;4.93;;
41943;SDS011;27636;52.610;13.244;2023-01-24T03:09:08;11.93;;;5.67;;
41943;SDS011;27636;52.610;13.244;2023-01-24T03:14:25;16.35;;;6.32;;
41943;SDS011;27636;52.610;13.244;2023-01-24T03:19:46;12.32;;;5.45;;
41943;SDS011;27636;52.610;13.244;2023-01-24T03:25:09;7.93;;;3.67;;
41943;SDS011;27636;52.610;13.244;2023-01-24T03:30:32;9.45;;;4.57;;
41943;SDS011;27636;52.610;13.244;2023-01-24T03:41:05;10.85;;;4.47;;
41943;SDS011;27636;52.610;13.244;2023-01-24T03:51:26;9.50;;;4.57;;
41943;SDS011;27636;52.610;13.244;2023-01-24T03:56:48;10.93;;;3.92;;
41943;SDS011;27636;52.610;13.244;2023-01-24T04:01:55;9.90;;;5.20;;
41943;SDS011;27636;52.610;13.244;2023-01-24T04:07:06;9.73;;;4.30;;
41943;SDS011;27636;52.610;13.244;2023-01-24T04:12:28;10.60;;;5.47;;
41943;SDS011;27636;52.610;13.244;2023-01-24T04:17:33;16.23;;;4.13;;
41943;SDS011;27636;52.610;13.244;2023-01-24T04:22:39;13.82;;;5.10;;
41943;SDS011;27636;52.610;13.244;2023-01-24T04:27:43;10.48;;;4.95;;
41943;SDS011;27636;52.610;13.244;2023-01-24T04:32:50;9.02;;;5.30;;
41943;SDS011;27636;52.610;13.244;2023-01-24T04:38:00;9.93;;;4.45;;
41943;SDS011;27636;52.610;13.244;2023-01-24T04:48:29;7.80;;;3.83;;
41943;SDS011;27636;52.610;13.244;2023-01-24T04:53:33;7.50;;;4.43;;
41943;SDS011;27636;52.610;13.244;2023-01-24T04:58:38;9.23;;;4.22;;
41943;SDS011;27636;52.610;13.244;2023-01-24T05:03:43;18.83;;;5.03;;
41943;SDS011;27636;52.610;13.244;2023-01-24T05:08:47;9.85;;;5.00;;
41943;SDS011;27636;52.610;13.244;2023-01-24T05:13:53;8.57;;;4.63;;
41943;SDS011;27636;52.610;13.244;2023-01-24T05:18:57;10.20;;;3.75;;
41943;SDS011;27636;52.610;13.244;2023-01-24T05:24:01;10.40;;;5.05;;
41943;SDS011;27636;52.610;13.244;2023-01-24T05:29:05;13.25;;;5.43;;
41943;SDS011;27636;52.610;13.244;2023-01-24T05:34:27;7.38;;;4.10;;
41943;SDS011;27636;52.610;13.244;2023-01-24T05:39:30;13.38;;;4.78;;
41943;SDS011;27636;52.610;13.244;2023-01-24T05:44:33;14.45;;;4.88;;
41943;SDS011;27636;52.610;13.244;2023-01-24T05:49:39;11.13;;;4.45;;
41943;SDS011;27636;52.610;13.244;2023-01-24T05:54:42;10.07;;;4.43;;
41943;SDS011;27636;52.610;13.244;2023-01-24T05:59:59;10.25;;;4.40;;
41943;SDS011;27636;52.610;13.244;2023-01-24T06:05:07;13.55;;;5.07;;
41943;SDS011;27636;52.610;13.244;2023-01-24T06:10:11;13.35;;;5.40;;
41943;SDS011;27636;52.610;13.244;2023-01-24T06:15:25;9.07;;;4.60;;
41943;SDS011;27636;52.610;13.244;2023-01-24T06:20:30;10.88;;;4.55;;
41943;SDS011;27636;52.610;13.244;2023-01-24T06:25:34;10.13;;;4.95;;
41943;SDS011;27636;52.610;13.244;2023-01-24T06:30:38;12.93;;;5.22;;
41943;SDS011;27636;52.610;13.244;2023-01-24T06:35:47;12.32;;;5.32;;
41943;SDS011;27636;52.610;13.244;2023-01-24T06:41:02;9.38;;;4.50;;
41943;SDS011;27636;52.610;13.244;2023-01-24T06:46:07;13.83;;;5.47;;
41943;SDS011;27636;52.610;13.244;2023-01-24T06:51:12;12.52;;;4.43;;
41943;SDS011;27636;52.610;13.244;2023-01-24T06:56:17;11.60;;;5.07;;
41943;SDS011;27636;52.610;13.244;2023-01-24T07:01:20;10.77;;;5.07;;
41943;SDS011;27636;52.610;13.244;2023-01-24T07:06:25;12.05;;;5.60;;
41943;SDS011;27636;52.610;13.244;2023-01-24T07:11:32;8.23;;;4.25;;
41943;SDS011;27636;52.610;13.244;2023-01-24T07:16:39;12.55;;;4.63;;
41943;SDS011;27636;52.610;13.244;2023-01-24T07:21:45;13.27;;;4.53;;
41943;SDS011;27636;52.610;13.244;2023-01-24T07:26:52;12.18;;;5.10;;
41943;SDS011;27636;52.610;13.244;2023-01-24T07:31:56;12.07;;;5.60;;
41943;SDS011;27636;52.610;13.244;2023-01-24T07:37:02;14.50;;;6.03;;
41943;SDS011;27636;52.610;13.244;2023-01-24T07:47:09;11.18;;;4.75;;
41943;SDS011;27636;52.610;13.244;2023-01-24T07:52:15;17.60;;;5.57;;
41943;SDS011;27636;52.610;13.244;2023-01-24T07:57:18;13.88;;;5.55;;
41943;SDS011;27636;52.610;13.244;2023-01-24T08:02:22;12.18;;;4.60;;
41943;SDS011;27636;52.610;13.244;2023-01-24T08:07:27;10.93;;;5.47;;
41943;SDS011;27636;52.610;13.244;2023-01-24T08:12:31;8.90;;;4.47;;
41943;SDS011;27636;52.610;13.244;2023-01-24T08:17:35;19.98;;;6.72;;
41943;SDS011;27636;52.610;13.244;2023-01-24T08:22:41;18.38;;;7.78;;
41943;SDS011;27636;52.610;13.244;2023-01-24T08:27:59;25.27;;;7.07;;
41943;SDS011;27636;52.610;13.244;2023-01-24T08:33:04;17.15;;;6.88;;
41943;SDS011;27636;52.610;13.244;2023-01-24T08:38:11;20.52;;;7.57;;
41943;SDS011;27636;52.610;13.244;2023-01-24T08:43:15;13.02;;;5.57;;
41943;SDS011;27636;52.610;13.244;2023-01-24T08:48:20;25.85;;;9.55;;
41943;SDS011;27636;52.610;13.244;2023-01-24T08:53:25;30.27;;;7.90;;
41943;SDS011;27636;52.610;13.244;2023-01-24T08:58:28;30.08;;;8.90;;
41943;SDS011;27636;52.610;13.244;2023-01-24T09:03:32;36.83;;;7.97;;
41943;SDS011;27636;52.610;13.244;2023-01-24T09:08:37;20.02;;;8.52;;
41943;SDS011;27636;52.610;13.244;2023-01-24T09:13:40;25.35;;;7.05;;
41943;SDS011;27636;52.610;13.244;2023-01-24T09:18:43;25.45;;;9.50;;
41943;SDS011;27636;52.610;13.244;2023-01-24T09:23:48;22.73;;;9.68;;
41943;SDS011;27636;52.610;13.244;2023-01-24T09:28:52;37.28;;;12.00;;
41943;SDS011;27636;52.610;13.244;2023-01-24T09:33:55;33.20;;;10.10;;
41943;SDS011;27636;52.610;13.244;2023-01-24T09:39:03;25.30;;;10.82;;
41943;SDS011;27636;52.610;13.244;2023-01-24T09:44:10;35.47;;;8.98;;
41943;SDS011;27636;52.610;13.244;2023-01-24T09:49:21;31.17;;;10.77;;
41943;SDS011;27636;52.610;13.244;2023-01-24T09:54:37;40.53;;;12.50;;
41943;SDS011;27636;52.610;13.244;2023-01-24T09:59:51;35.10;;;10.15;;
41943;SDS011;27636;52.610;13.244;2023-01-24T10:04:58;54.47;;;12.30;;
41943;SDS011;27636;52.610;13.244;2023-01-24T10:10:05;42.40;;;13.70;;
41943;SDS011;27636;52.610;13.244;2023-01-24T10:15:24;39.35;;;12.98;;
41943;SDS011;27636;52.610;13.244;2023-01-24T10:20:46;42.45;;;12.77;;
41943;SDS011;27636;52.610;13.244;2023-01-24T10:26:17;52.85;;;13.15;;
41943;SDS011;27636;52.610;13.244;2023-01-24T10:31:23;54.13;;;14.40;;
41943;SDS011;27636;52.610;13.244;2023-01-24T10:36:33;38.38;;;11.00;;
41943;SDS011;27636;52.610;13.244;2023-01-24T10:41:43;47.22;;;12.75;;
41943;SDS011;27636;52.610;13.244;2023-01-24T10:46:57;53.47;;;13.85;;
41943;SDS011;27636;52.610;13.244;2023-01-24T10:52:17;62.88;;;14.05;;
41943;SDS011;27636;52.610;13.244;2023-01-24T10:57:38;51.05;;;14.20;;
41943;SDS011;27636;52.610;13.244;2023-01-24T11:02:46;58.70;;;14.15;;
41943;SDS011;27636;52.610;13.244;2023-01-24T11:07:52;44.97;;;11.30;;
41943;SDS011;27636;52.610;13.244;2023-01-24T11:12:58;50.78;;;12.40;;
41943;SDS011;27636;52.610;13.244;2023-01-24T11:18:05;50.13;;;14.82;;
41943;SDS011;27636;52.610;13.244;2023-01-24T11:23:16;48.30;;;11.95;;
41943;SDS011;27636;52.610;13.244;2023-01-24T11:28:27;34.42;;;10.65;;
41943;SDS011;27636;52.610;13.244;2023-01-24T11:39:02;42.65;;;15.00;;
41943;SDS011;27636;52.610;13.244;2023-01-24T11:55:33;48.53;;;14.68;;
41943;SDS011;27636;52.610;13.244;2023-01-24T12:00:49;38.97;;;11.23;;
41943;SDS011;27636;52.610;13.244;2023-01-24T12:06:04;36.40;;;10.82;;
41943;SDS011;27636;52.610;13.244;2023-01-24T12:11:20;44.70;;;12.85;;
41943;SDS011;27636;52.610;13.244;2023-01-24T12:16:43;54.58;;;11.55;;
41943;SDS011;27636;52.610;13.244;2023-01-24T12:21:56;46.80;;;12.95;;
41943;SDS011;27636;52.610;13.244;2023-01-24T12:27:01;40.67;;;11.68;;
41943;SDS011;27636;52.610;13.244;2023-01-24T12:32:13;43.72;;;11.95;;
41943;SDS011;27636;52.610;13.244;2023-01-24T12:37:23;60.75;;;11.82;;
41943;SDS011;27636;52.610;13.244;2023-01-24T12:42:36;45.58;;;13.60;;
41943;SDS011;27636;52.610;13.244;2023-01-24T12:47:53;48.20;;;11.40;;
41943;SDS011;27636;52.610;13.244;2023-01-24T12:53:04;26.33;;;8.82;;
41943;SDS011;27636;52.610;13.244;2023-01-24T12:58:16;42.70;;;11.82;;
41943;SDS011;27636;52.610;13.244;2023-01-24T13:03:29;44.08;;;12.65;;
41943;SDS011;27636;52.610;13.244;2023-01-24T13:08:42;36.57;;;9.07;;
41943;SDS011;27636;52.610;13.244;2023-01-24T13:13:57;56.53;;;12.20;;
41943;SDS011;27636;52.610;13.244;2023-01-24T13:19:11;43.95;;;11.20;;
41943;SDS011;27636;52.610;13.244;2023-01-24T13:24:26;34.92;;;10.23;;
41943;SDS011;27636;52.610;13.244;2023-01-24T13:29:47;39.45;;;11.63;;
41943;SDS011;27636;52.610;13.244;2023-01-24T13:35:11;35.38;;;12.73;;
41943;SDS011;27636;52.610;13.244;2023-01-24T13:40:21;45.55;;;12.93;;
41943;SDS011;27636;52.610;13.244;2023-01-24T13:45:49;41.42;;;11.73;;
41943;SDS011;27636;52.610;13.244;2023-01-24T13:56:34;36.13;;;10.98;;
41943;SDS011;27636;52.610;13.244;2023-01-24T14:02:27;41.63;;;12.45;;
41943;SDS011;27636;52.610;13.244;2023-01-24T14:07:35;41.83;;;10.85;;
41943;SDS011;27636;52.610;13.244;2023-01-24T14:12:51;27.98;;;9.90;;
41943;SDS011;27636;52.610;13.244;2023-01-24T14:17:58;37.33;;;10.70;;
41943;SDS011;27636;52.610;13.244;2023-01-24T14:28:12;37.40;;;11.10;;
41943;SDS011;27636;52.610;13.244;2023-01-24T14:33:26;27.75;;;10.48;;
41943;SDS011;27636;52.610;13.244;2023-01-24T14:38:38;35.15;;;8.63;;
41943;SDS011;27636;52.610;13.244;2023-01-24T14:43:42;33.78;;;8.90;;
41943;SDS011;27636;52.610;13.244;2023-01-24T14:48:48;30.65;;;10.82;;
41943;SDS011;27636;52.610;13.244;2023-01-24T14:59:09;27.90;;;8.70;;
41943;SDS011;27636;52.610;13.244;2023-01-24T15:04:23;34.60;;;8.73;;
41943;SDS011;27636;52.610;13.244;2023-01-24T15:09:29;33.33;;;10.57;;
41943;SDS011;27636;52.610;13.244;2023-01-24T15:14:33;41.40;;;9.77;;
41943;SDS011;27636;52.610;13.244;2023-01-24T15:19:38;35.88;;;8.73;;
41943;SDS011;27636;52.610;13.244;2023-01-24T15:24:42;38.13;;;9.23;;
41943;SDS011;27636;52.610;13.244;2023-01-24T15:30:04;26.90;;;9.52;;
41943;SDS011;27636;52.610;13.244;2023-01-24T15:35:26;24.17;;;8.02;;
41943;SDS011;27636;52.610;13.244;2023-01-24T15:40:32;39.35;;;10.18;;
41943;SDS011;27636;52.610;13.244;2023-01-24T15:45:37;30.33;;;9.45;;
41943;SDS011;27636;52.610;13.244;2023-01-24T15:50:50;32.33;;;9.48;;
41943;SDS011;27636;52.610;13.244;2023-01-24T15:56:20;35.38;;;9.52;;
41943;SDS011;27636;52.610;13.244;2023-01-24T16:01:28;28.27;;;7.43;;
41943;SDS011;27636;52.610;13.244;2023-01-24T16:06:34;22.70;;;8.45;;
41943;SDS011;27636;52.610;13.244;2023-01-24T16:11:38;42.92;;;7.85;;
41943;SDS011;27636;52.610;13.244;2023-01-24T16:16:44;33.97;;;9.98;;
41943;SDS011;27636;52.610;13.244;2023-01-24T16:21:50;24.40;;;8.33;;
41943;SDS011;27636;52.610;13.244;2023-01-24T16:26:53;26.85;;;10.52;;
41943;SDS011;27636;52.610;13.244;2023-01-24T16:31:58;34.80;;;7.65;;
41943;SDS011;27636;52.610;13.244;2023-01-24T16:37:03;28.88;;;9.48;;
41943;SDS011;27636;52.610;13.244;2023-01-24T16:42:07;38.10;;;9.10;;
41943;SDS011;27636;52.610;13.244;2023-01-24T16:47:16;29.05;;;9.23;;
41943;SDS011;27636;52.610;13.244;2023-01-24T16:52:22;29.55;;;9.45;;
41943;SDS011;27636;52.610;13.244;2023-01-24T16:57:26;24.13;;;9.13;;
41943;SDS011;27636;52.610;13.244;2023-01-24T17:02:29;23.65;;;9.13;;
41943;SDS011;27636;52.610;13.244;2023-01-24T17:07:34;22.95;;;9.50;;
41943;SDS011;27636;52.610;13.244;2023-01-24T17:12:38;21.58;;;9.50;;
41943;SDS011;27636;52.610;13.244;2023-01-24T17:17:42;18.73;;;8.25;;
41943;SDS011;27636;52.610;13.244;2023-01-24T17:22:47;27.77;;;7.70;;
41943;SDS011;27636;52.610;13.244;2023-01-24T17:32:54;17.45;;;6.93;;
41943;SDS011;27636;52.610;13.244;2023-01-24T17:37:59;18.65;;;7.32;;
41943;SDS011;27636;52.610;13.244;2023-01-24T17:43:05;24.30;;;6.68;;
41943;SDS011;27636;52.610;13.244;2023-01-24T17:48:09;21.65;;;7.20;;
41943;SDS011;27636;52.610;13.244;2023-01-24T17:53:16;18.95;;;6.28;;
41943;SDS011;27636;52.610;13.244;2023-01-24T17:58:21;34.72;;;8.77;;
41943;SDS011;27636;52.610;13.244;2023-01-24T18:03:25;31.90;;;12.48;;
41943;SDS011;27636;52.610;13.244;2023-01-24T18:08:30;27.98;;;9.07;;
41943;SDS011;27636;52.610;13.244;2023-01-24T18:13:34;25.50;;;8.43;;
41943;SDS011;27636;52.610;13.244;2023-01-24T18:18:38;27.10;;;10.30;;
41943;SDS011;27636;52.610;13.244;2023-01-24T18:23:45;23.63;;;10.10;;
41943;SDS011;27636;52.610;13.244;2023-01-24T18:28:52;31.48;;;9.88;;
41943;SDS011;27636;52.610;13.244;2023-01-24T18:33:57;21.73;;;9.45;;
41943;SDS011;27636;52.610;13.244;2023-01-24T18:39:03;26.80;;;9.50;;
41943;SDS011;27636;52.610;13.244;2023-01-24T18:44:07;24.05;;;8.82;;
41943;SDS011;27636;52.610;13.244;2023-01-24T18:49:14;21.40;;;9.00;;
41943;SDS011;27636;52.610;13.244;2023-01-24T18:54:19;23.23;;;8.40;;
41943;SDS011;27636;52.610;13.244;2023-01-24T18:59:22;25.23;;;8.45;;
41943;SDS011;27636;52.610;13.244;2023-01-24T19:04:27;28.67;;;9.30;;
41943;SDS011;27636;52.610;13.244;2023-01-24T19:14:36;21.70;;;7.38;;
41943;SDS011;27636;52.610;13.244;2023-01-24T19:19:41;19.83;;;7.95;;
41943;SDS011;27636;52.610;13.244;2023-01-24T19:24:47;21.98;;;9.32;;
41943;SDS011;27636;52.610;13.244;2023-01-24T19:29:51;23.75;;;8.43;;
41943;SDS011;27636;52.610;13.244;2023-01-24T19:34:55;32.17;;;9.20;;
41943;SDS011;27636;52.610;13.244;2023-01-24T19:40:00;21.50;;;8.10;;
41943;SDS011;27636;52.610;13.244;2023-01-24T19:45:05;27.40;;;9.68;;
41943;SDS011;27636;52.610;13.244;2023-01-24T19:50:11;18.63;;;7.97;;
41943;SDS011;27636;52.610;13.244;2023-01-24T19:55:16;18.35;;;8.82;;
41943;SDS011;27636;52.610;13.244;2023-01-24T20:00:20;26.95;;;9.23;;
41943;SDS011;27636;52.610;13.244;2023-01-24T20:05:25;30.10;;;10.73;;
41943;SDS011;27636;52.610;13.244;2023-01-24T20:10:31;22.00;;;10.32;;
41943;SDS011;27636;52.610;13.244;2023-01-24T20:15:35;25.65;;;10.15;;
41943;SDS011;27636;52.610;13.244;2023-01-24T20:20:42;36.53;;;11.27;;
41943;SDS011;27636;52.610;13.244;2023-01-24T20:25:52;26.88;;;9.85;;
41943;SDS011;27636;52.610;13.244;2023-01-24T20:30:58;32.63;;;8.43;;
41943;SDS011;27636;52.610;13.244;2023-01-24T20:36:04;18.73;;;7.63;;
41943;SDS011;27636;52.610;13.244;2023-01-24T20:41:12;19.40;;;7.85;;
41943;SDS011;27636;52.610;13.244;2023-01-24T20:46:17;30.15;;;9.27;;
41943;SDS011;27636;52.610;13.244;2023-01-24T20:51:23;28.00;;;8.00;;
41943;SDS011;27636;52.610;13.244;2023-01-24T20:56:33;23.23;;;8.57;;
41943;SDS011;27636;52.610;13.244;2023-01-24T21:06:40;17.38;;;6.38;;
41943;SDS011;27636;52.610;13.244;2023-01-24T21:11:48;19.25;;;8.50;;
41943;SDS011;27636;52.610;13.244;2023-01-24T21:16:53;22.17;;;8.57;;
41943;SDS011;27636;52.610;13.244;2023-01-24T21:21:57;26.05;;;8.52;;
41943;SDS011;27636;52.610;13.244;2023-01-24T21:27:02;25.60;;;7.50;;
41943;SDS011;27636;52.610;13.244;2023-01-24T21:32:06;16.77;;;8.82;;
41943;SDS011;27636;52.610;13.244;2023-01-24T21:37:10;27.38;;;7.97;;
41943;SDS011;27636;52.610;13.244;2023-01-24T21:42:31;28.67;;;8.68;;
41943;SDS011;27636;52.610;13.244;2023-01-24T21:47:35;20.48;;;7.60;;
41943;SDS011;27636;52.610;13.244;2023-01-24T21:52:38;19.55;;;7.28;;
41943;SDS011;27636;52.610;13.244;2023-01-24T21:57:43;18.05;;;7.32;;
41943;SDS011;27636;52.610;13.244;2023-01-24T22:03:05;21.55;;;7.43;;
41943;SDS011;27636;52.610;13.244;2023-01-24T22:08:27;15.18;;;6.72;;
41943;SDS011;27636;52.610;13.244;2023-01-24T22:13:32;15.45;;;7.47;;
41943;SDS011;27636;52.610;13.244;2023-01-24T22:18:36;20.95;;;7.75;;
41943;SDS011;27636;52.610;13.244;2023-01-24T22:23:40;19.40;;;8.18;;
41943;SDS011;27636;52.610;13.244;2023-01-24T22:28:51;14.80;;;6.07;;
41943;SDS011;27636;52.610;13.244;2023-01-24T22:33:56;20.27;;;8.35;;
41943;SDS011;27636;52.610;13.244;2023-01-24T22:39:00;23.40;;;7.57;;
41943;SDS011;27636;52.610;13.244;2023-01-24T22:44:06;23.97;;;8.30;;
41943;SDS011;27636;52.610;13.244;2023-01-24T22:49:10;15.85;;;6.70;;
41943;SDS011;27636;52.610;13.244;2023-01-24T22:54:14;17.30;;;8.80;;
41943;SDS011;27636;52.610;13.244;2023-01-24T22:59:20;23.55;;;8.02;;
41943;SDS011;27636;52.610;13.244;2023-01-24T23:04:25;22.08;;;7.93;;
41943;SDS011;27636;52.610;13.244;2023-01-24T23:09:29;20.73;;;7.53;;
41943;SDS011;27636;52.610;13.244;2023-01-24T23:14:35;18.97;;;7.00;;
41943;SDS011;27636;52.610;13.244;2023-01-24T23:19:58;21.13;;;7.30;;
41943;SDS011;27636;52.610;13.244;2023-01-24T23:25:20;24.65;;;7.88;;
41943;SDS011;27636;52.610;13.244;2023-01-24T23:30:29;21.30;;;8.57;;
41943;SDS011;27636;52.610;13.244;2023-01-24T23:35:39;21.00;;;7.05;;
41943;SDS011;27636;52.610;13.244;2023-01-24T23:40:43;25.67;;;7.40;;
41943;SDS011;27636;52.610;13.244;2023-01-24T23:45:48;13.77;;;7.40;;
41943;SDS011;27636;52.610;13.244;2023-01-24T23:50:53;20.52;;;7.68;;
41943;SDS011;27636;52.610;13.244;2023-01-24T23:55:57;14.60;;;5.80;;
